sensor_id;sensor_type;location;lat;lon;timestamp;P1;durP1;ratioP1;P2;durP2;ratioP2
63782;SDS011;49925;52.522;5.732;2022-10-26T17:12:59;33.85;;;12.48;;
63782;SDS011;49925;52.522;5.732;2022-10-26T17:15:26;27.15;;;11.57;;
63782;SDS011;49925;52.522;5.732;2022-10-26T17:17:54;35.47;;;13.48;;
63782;SDS011;49925;52.522;5.732;2022-10-26T17:20:21;37.20;;;17.25;;
63782;SDS011;49925;52.522;5.732;2022-10-26T17:26:45;33.63;;;13.77;;
63782;SDS011;49925;52.522;5.732;2022-10-26T17:29:14;37.40;;;13.50;;
63782;SDS011;49925;52.522;5.732;2022-10-26T17:31:41;30.98;;;14.25;;
63782;SDS011;49925;52.522;5.732;2022-10-26T17:34:08;38.22;;;13.15;;
63782;SDS011;49925;52.522;5.732;2022-10-26T17:36:35;36.42;;;12.23;;
63782;SDS011;49925;52.522;5.732;2022-10-26T17:39:03;41.30;;;12.27;;
63782;SDS011;49925;52.522;5.732;2022-10-26T17:41:30;31.40;;;9.33;;
63782;SDS011;49925;52.522;5.732;2022-10-26T17:43:57;25.70;;;9.85;;
63782;SDS011;49925;52.522;5.732;2022-10-26T17:46:25;36.67;;;9.70;;
63782;SDS011;49925;52.522;5.732;2022-10-26T17:48:57;28.67;;;7.78;;
63782;SDS011;49925;52.522;5.732;2022-10-26T17:51:25;25.92;;;8.20;;
63782;SDS011;49925;52.522;5.732;2022-10-26T17:53:54;37.65;;;8.43;;
63782;SDS011;49925;52.522;5.732;2022-10-26T17:56:25;24.38;;;8.68;;
63782;SDS011;49925;52.522;5.732;2022-10-26T17:59:08;31.42;;;9.25;;
63782;SDS011;49925;52.522;5.732;2022-10-26T18:01:37;37.70;;;8.63;;
63782;SDS011;49925;52.522;5.732;2022-10-26T18:04:04;30.20;;;8.38;;
63782;SDS011;49925;52.522;5.732;2022-10-26T18:06:31;27.50;;;7.85;;
63782;SDS011;49925;52.522;5.732;2022-10-26T18:08:59;25.92;;;7.80;;
63782;SDS011;49925;52.522;5.732;2022-10-26T18:11:26;23.00;;;7.57;;
63782;SDS011;49925;52.522;5.732;2022-10-26T18:13:54;29.42;;;7.50;;
63782;SDS011;49925;52.522;5.732;2022-10-26T18:16:23;21.02;;;7.63;;
63782;SDS011;49925;52.522;5.732;2022-10-26T18:18:55;31.02;;;8.02;;
63782;SDS011;49925;52.522;5.732;2022-10-26T18:21:28;32.55;;;6.93;;
63782;SDS011;49925;52.522;5.732;2022-10-26T18:23:59;24.92;;;8.15;;
63782;SDS011;49925;52.522;5.732;2022-10-26T18:26:27;22.95;;;6.90;;
63782;SDS011;49925;52.522;5.732;2022-10-26T18:28:58;24.85;;;6.95;;
63782;SDS011;49925;52.522;5.732;2022-10-26T18:31:27;22.75;;;6.22;;
63782;SDS011;49925;52.522;5.732;2022-10-26T18:34:00;28.70;;;6.82;;
63782;SDS011;49925;52.522;5.732;2022-10-26T18:36:29;29.08;;;6.72;;
63782;SDS011;49925;52.522;5.732;2022-10-26T18:38:56;34.38;;;7.20;;
63782;SDS011;49925;52.522;5.732;2022-10-26T19:38:54;23.65;;;6.63;;
63782;SDS011;49925;52.522;5.732;2022-10-26T19:41:21;36.33;;;8.38;;
63782;SDS011;49925;52.522;5.732;2022-10-26T19:43:49;23.08;;;6.72;;
63782;SDS011;49925;52.522;5.732;2022-10-26T19:46:17;23.08;;;6.82;;
63782;SDS011;49925;52.522;5.732;2022-10-26T19:48:47;20.95;;;6.88;;
63782;SDS011;49925;52.522;5.732;2022-10-26T19:51:22;34.50;;;8.55;;
63782;SDS011;49925;52.522;5.732;2022-10-26T19:53:51;27.45;;;7.93;;
63782;SDS011;49925;52.522;5.732;2022-10-26T19:56:18;34.83;;;7.47;;
63782;SDS011;49925;52.522;5.732;2022-10-26T19:58:47;29.90;;;7.90;;
63782;SDS011;49925;52.522;5.732;2022-10-26T20:01:16;26.00;;;9.13;;
63782;SDS011;49925;52.522;5.732;2022-10-26T20:03:44;24.00;;;8.02;;
63782;SDS011;49925;52.522;5.732;2022-10-26T20:06:11;25.35;;;7.43;;
63782;SDS011;49925;52.522;5.732;2022-10-26T20:08:39;25.85;;;7.35;;
63782;SDS011;49925;52.522;5.732;2022-10-26T20:11:07;28.70;;;7.82;;
63782;SDS011;49925;52.522;5.732;2022-10-26T20:13:41;36.58;;;7.68;;
63782;SDS011;49925;52.522;5.732;2022-10-26T20:16:09;27.88;;;8.27;;
63782;SDS011;49925;52.522;5.732;2022-10-26T22:09:06;29.10;;;10.40;;
63782;SDS011;49925;52.522;5.732;2022-10-26T22:11:33;29.00;;;11.00;;
63782;SDS011;49925;52.522;5.732;2022-10-26T22:14:00;30.90;;;11.13;;
63782;SDS011;49925;52.522;5.732;2022-10-26T22:16:29;38.85;;;11.13;;
63782;SDS011;49925;52.522;5.732;2022-10-26T22:18:58;29.63;;;10.57;;
63782;SDS011;49925;52.522;5.732;2022-10-26T22:21:32;39.08;;;11.15;;
63782;SDS011;49925;52.522;5.732;2022-10-26T22:24:02;30.40;;;11.00;;
63782;SDS011;49925;52.522;5.732;2022-10-26T22:26:30;41.60;;;12.13;;
63782;SDS011;49925;52.522;5.732;2022-10-26T22:28:59;39.65;;;11.75;;
63782;SDS011;49925;52.522;5.732;2022-10-26T22:31:29;29.73;;;11.50;;
63782;SDS011;49925;52.522;5.732;2022-10-26T22:34:03;25.92;;;11.80;;
63782;SDS011;49925;52.522;5.732;2022-10-26T22:36:33;36.72;;;12.48;;
63782;SDS011;49925;52.522;5.732;2022-10-26T22:39:01;32.65;;;12.27;;
63782;SDS011;49925;52.522;5.732;2022-10-26T22:41:28;34.67;;;11.35;;
